createdAt,value
2023-01-31T00:01:26.870Z,89.41
2023-01-31T00:03:55.368Z,89.39
2023-01-31T00:06:30.186Z,89.39
2023-01-31T00:08:58.920Z,89.37
2023-01-31T00:11:28.155Z,89.35
2023-01-31T00:13:55.737Z,89.33
2023-01-31T00:16:22.866Z,89.29
2023-01-31T00:18:50.857Z,89.27
2023-01-31T00:21:29.252Z,89.25
2023-01-31T00:23:57.607Z,89.23
2023-01-31T00:26:29.013Z,89.22
2023-01-31T00:28:57.612Z,89.23
2023-01-31T00:31:26.881Z,89.26
2023-01-31T00:33:54.857Z,89.28
2023-01-31T00:36:28.006Z,89.29
2023-01-31T00:38:57.152Z,89.28
2023-01-31T00:41:25.476Z,89.24
2023-01-31T00:43:52.458Z,89.25
2023-01-31T00:46:23.360Z,89.25
2023-01-31T00:48:50.811Z,89.31
2023-01-31T00:51:19.584Z,89.35
2023-01-31T00:53:47.506Z,89.44
2023-01-31T00:56:17.791Z,89.51
2023-01-31T00:58:45.496Z,89.58
2023-01-31T01:01:16.064Z,89.65
2023-01-31T01:03:45.381Z,89.66
2023-01-31T01:06:14.477Z,89.68
2023-01-31T01:08:42.690Z,89.68
2023-01-31T01:11:13.546Z,89.71
2023-01-31T01:13:41.030Z,89.77
2023-01-31T01:16:11.200Z,89.74
2023-01-31T01:18:39.029Z,89.83
2023-01-31T01:21:11.720Z,89.86
2023-01-31T01:23:39.456Z,89.91
2023-01-31T01:26:13.505Z,89.88
2023-01-31T01:28:40.354Z,89.92
2023-01-31T01:31:08.834Z,89.90
2023-01-31T01:33:36.661Z,89.85
2023-01-31T01:36:06.040Z,89.92
2023-01-31T01:38:37.405Z,89.94
2023-01-31T01:41:05.208Z,89.91
2023-01-31T01:43:45.742Z,89.92
2023-01-31T01:46:17.646Z,89.97
2023-01-31T01:48:49.648Z,89.94
2023-01-31T01:51:18.978Z,89.95
2023-01-31T01:53:49.606Z,89.91
2023-01-31T01:56:23.324Z,89.87
2023-01-31T01:59:20.006Z,89.83
2023-01-31T02:01:48.878Z,89.79
2023-01-31T02:04:21.497Z,89.77
2023-01-31T02:06:48.378Z,89.72
2023-01-31T02:09:52.959Z,89.65
2023-01-31T02:12:20.361Z,89.58
2023-01-31T02:14:48.003Z,89.52
2023-01-31T02:17:17.340Z,89.49
2023-01-31T02:20:00.716Z,89.46
2023-01-31T02:22:34.030Z,89.38
2023-01-31T02:25:28.659Z,89.35
2023-01-31T02:28:14.368Z,89.32
2023-01-31T02:30:50.151Z,89.27
2023-01-31T02:33:32.538Z,89.20
2023-01-31T02:36:14.421Z,89.12
2023-01-31T02:39:10.522Z,89.12
2023-01-31T02:41:40.224Z,89.06
2023-01-31T02:44:50.693Z,88.99
2023-01-31T02:48:12.303Z,88.96
2023-01-31T02:51:07.666Z,88.87
2023-01-31T02:53:43.056Z,88.84
2023-01-31T02:56:17.484Z,88.80
2023-01-31T02:58:57.388Z,88.72
2023-01-31T03:01:29.713Z,88.61
2023-01-31T03:04:05.127Z,88.63
2023-01-31T03:06:35.424Z,88.55
2023-01-31T03:09:06.664Z,88.34
2023-01-31T03:12:09.312Z,88.30
2023-01-31T03:14:51.400Z,88.15
2023-01-31T03:17:37.850Z,88.19
2023-01-31T03:20:07.534Z,88.07
2023-01-31T03:22:58.388Z,87.98
2023-01-31T03:25:30.250Z,87.72
2023-01-31T03:28:05.948Z,87.69
2023-01-31T03:30:36.302Z,87.72
2023-01-31T03:33:20.779Z,87.71
2023-01-31T03:35:56.515Z,87.75
2023-01-31T03:38:28.232Z,87.60
2023-01-31T03:41:08.254Z,87.44
2023-01-31T03:43:45.791Z,87.48
2023-01-31T03:46:18.224Z,87.45
2023-01-31T03:48:50.615Z,87.34
2023-01-31T03:51:27.066Z,87.33
2023-01-31T03:53:59.160Z,87.41
2023-01-31T03:56:42.038Z,87.34
2023-01-31T03:59:16.832Z,87.30
2023-01-31T04:01:48.449Z,87.23
2023-01-31T04:04:21.439Z,87.29
2023-01-31T04:06:48.654Z,87.23
2023-01-31T04:09:16.470Z,87.23
2023-01-31T04:11:47.879Z,87.23
2023-01-31T04:14:16.016Z,87.22
2023-01-31T04:16:42.704Z,87.25
2023-01-31T04:19:09.506Z,87.20
2023-01-31T04:21:36.879Z,87.10
2023-01-31T04:24:03.608Z,87.02
2023-01-31T04:26:30.403Z,86.91
2023-01-31T04:28:57.221Z,86.86
2023-01-31T04:31:23.874Z,86.80
2023-01-31T04:33:50.820Z,86.69
2023-01-31T04:36:17.536Z,86.52
2023-01-31T04:38:44.359Z,86.31
2023-01-31T04:41:11.192Z,86.24
2023-01-31T04:43:37.984Z,86.23
2023-01-31T04:46:04.593Z,86.15
2023-01-31T04:48:31.811Z,86.01
2023-01-31T04:50:58.599Z,86.20
2023-01-31T04:53:25.704Z,86.22
2023-01-31T04:55:55.886Z,86.16
2023-01-31T04:58:22.979Z,86.20
2023-01-31T05:00:49.591Z,86.02
2023-01-31T05:03:17.689Z,86.04
2023-01-31T05:05:44.410Z,86.07
2023-01-31T05:08:10.981Z,85.98
2023-01-31T05:10:39.509Z,85.97
2023-01-31T05:13:07.314Z,86.01
2023-01-31T05:15:34.032Z,85.86
2023-01-31T05:18:04.516Z,85.80
2023-01-31T05:20:36.187Z,85.72
2023-01-31T05:23:03.775Z,85.71
2023-01-31T05:25:31.527Z,85.81
2023-01-31T05:27:59.004Z,85.85
2023-01-31T05:30:28.030Z,85.60
2023-01-31T05:32:54.940Z,85.59
2023-01-31T05:35:22.107Z,85.59
2023-01-31T05:37:48.946Z,85.50
2023-01-31T05:40:17.051Z,85.52
2023-01-31T05:42:44.265Z,85.59
2023-01-31T05:45:12.019Z,85.63
2023-01-31T05:47:38.927Z,85.59
2023-01-31T05:50:06.664Z,85.62
2023-01-31T05:52:33.446Z,85.53
2023-01-31T05:55:00.435Z,85.62
2023-01-31T05:57:27.952Z,85.65
2023-01-31T05:59:54.556Z,85.58
2023-01-31T06:02:21.261Z,85.54
2023-01-31T06:04:48.957Z,85.54
2023-01-31T06:07:16.230Z,85.61
2023-01-31T06:09:43.384Z,85.68
2023-01-31T06:12:14.071Z,85.71
2023-01-31T06:14:40.988Z,85.82
2023-01-31T06:17:07.786Z,85.94
2023-01-31T06:19:34.663Z,85.69
2023-01-31T06:22:01.416Z,85.63
2023-01-31T06:24:28.044Z,85.53
2023-01-31T06:26:54.752Z,85.48
2023-01-31T06:29:22.070Z,85.47
2023-01-31T06:31:48.950Z,85.56
2023-01-31T06:34:15.792Z,85.34
2023-01-31T06:36:42.638Z,85.22
2023-01-31T06:39:10.966Z,85.38
2023-01-31T06:41:37.710Z,85.41
2023-01-31T06:44:04.378Z,85.32
2023-01-31T06:46:32.939Z,85.27
2023-01-31T06:48:59.768Z,85.29
2023-01-31T06:51:26.563Z,85.50
2023-01-31T06:53:55.751Z,85.57
2023-01-31T06:56:23.002Z,85.40
2023-01-31T06:58:49.972Z,85.41
2023-01-31T07:01:16.866Z,85.36
2023-01-31T07:03:43.716Z,85.12
2023-01-31T07:06:11.466Z,85.17
2023-01-31T07:08:38.117Z,85.26
2023-01-31T07:11:05.603Z,85.11
2023-01-31T07:13:32.505Z,85.00
2023-01-31T07:15:59.758Z,84.91
2023-01-31T07:18:26.780Z,84.84
2023-01-31T07:20:53.514Z,84.88
2023-01-31T07:23:20.292Z,84.88
2023-01-31T07:25:46.991Z,84.97
2023-01-31T07:28:13.735Z,84.93
2023-01-31T07:30:43.265Z,84.87
2023-01-31T07:33:11.337Z,84.64
2023-01-31T07:35:38.227Z,84.55
2023-01-31T07:38:05.502Z,84.23
2023-01-31T07:40:32.405Z,84.14
2023-01-31T07:42:59.424Z,84.03
2023-01-31T07:45:27.052Z,84.02
2023-01-31T07:47:58.577Z,84.08
2023-01-31T07:50:29.807Z,83.99
2023-01-31T07:52:58.188Z,83.92
2023-01-31T07:55:26.097Z,83.92
2023-01-31T07:57:52.998Z,84.01
2023-01-31T08:00:39.092Z,84.08
2023-01-31T08:03:24.470Z,84.32
2023-01-31T08:05:51.232Z,83.91
2023-01-31T08:08:18.038Z,83.40
2023-01-31T08:10:47.226Z,83.30
2023-01-31T08:13:14.120Z,83.15
2023-01-31T08:15:40.717Z,83.33
2023-01-31T08:18:07.398Z,83.16
2023-01-31T08:20:37.171Z,82.96
2023-01-31T08:23:03.932Z,83.13
2023-01-31T08:25:30.780Z,82.85
2023-01-31T08:27:58.091Z,82.65
2023-01-31T08:30:24.920Z,82.92
2023-01-31T08:32:52.129Z,83.06
2023-01-31T08:35:19.155Z,83.32
2023-01-31T08:37:46.550Z,83.70
2023-01-31T08:40:13.319Z,83.27
2023-01-31T08:42:40.002Z,82.92
2023-01-31T08:45:06.897Z,82.68
2023-01-31T08:47:33.991Z,82.25
2023-01-31T08:50:00.693Z,82.00
2023-01-31T08:52:27.492Z,81.81
2023-01-31T08:54:54.312Z,82.23
2023-01-31T08:57:21.041Z,81.99
2023-01-31T08:59:47.781Z,81.98
2023-01-31T09:02:14.556Z,82.21
2023-01-31T09:04:41.143Z,81.88
2023-01-31T09:07:07.942Z,81.81
2023-01-31T09:09:35.281Z,81.97
2023-01-31T09:12:04.190Z,81.60
2023-01-31T09:14:31.128Z,81.53
2023-01-31T09:16:58.075Z,81.28
2023-01-31T09:19:24.905Z,81.32
2023-01-31T09:21:51.786Z,81.44
2023-01-31T09:24:18.563Z,81.47
2023-01-31T09:26:45.456Z,81.81
2023-01-31T09:29:12.213Z,81.95
2023-01-31T09:31:41.439Z,82.18
2023-01-31T09:34:08.288Z,81.81
2023-01-31T09:36:34.989Z,82.26
2023-01-31T09:39:02.111Z,81.37
2023-01-31T09:41:43.644Z,81.30
2023-01-31T09:44:20.587Z,81.92
2023-01-31T09:47:11.213Z,81.49
2023-01-31T09:49:51.800Z,80.80
2023-01-31T09:52:18.664Z,81.05
2023-01-31T09:54:45.329Z,81.56
2023-01-31T09:57:11.981Z,81.75
2023-01-31T09:59:48.486Z,81.52
2023-01-31T10:02:27.600Z,80.98
2023-01-31T10:05:18.598Z,80.90
2023-01-31T10:08:07.655Z,81.04
2023-01-31T10:10:44.859Z,81.08
2023-01-31T10:13:22.826Z,80.70
2023-01-31T10:16:11.648Z,80.49
2023-01-31T10:18:43.694Z,80.18
2023-01-31T10:21:18.522Z,80.17
2023-01-31T10:23:58.118Z,79.98
2023-01-31T10:26:36.460Z,79.93
2023-01-31T10:29:06.271Z,80.21
2023-01-31T10:31:53.441Z,80.10
2023-01-31T10:34:28.224Z,80.14
2023-01-31T10:37:09.406Z,79.79
2023-01-31T10:39:43.410Z,80.24
2023-01-31T10:42:32.555Z,79.53
2023-01-31T10:45:33.641Z,79.73
2023-01-31T10:48:25.613Z,78.97
2023-01-31T10:51:16.437Z,78.29
2023-01-31T10:54:01.505Z,78.69
2023-01-31T10:56:35.613Z,78.75
2023-01-31T10:59:10.816Z,78.58
2023-01-31T11:01:37.868Z,78.73
2023-01-31T11:04:21.880Z,78.20
2023-01-31T11:06:48.764Z,77.62
2023-01-31T11:09:26.946Z,77.94
2023-01-31T11:12:00.089Z,77.33
2023-01-31T11:14:29.427Z,77.48
2023-01-31T11:17:18.231Z,77.77
2023-01-31T11:19:49.364Z,77.23
2023-01-31T11:22:29.963Z,77.06
2023-01-31T11:24:59.225Z,77.36
2023-01-31T11:27:43.133Z,77.39
2023-01-31T11:30:27.951Z,75.81
2023-01-31T11:32:55.118Z,76.09
2023-01-31T11:35:25.232Z,76.10
2023-01-31T11:37:54.048Z,75.77
2023-01-31T11:40:29.278Z,76.14
2023-01-31T11:42:57.415Z,75.97
2023-01-31T11:45:27.862Z,74.75
2023-01-31T11:48:07.808Z,75.33
2023-01-31T11:50:38.945Z,75.31
2023-01-31T11:53:27.447Z,73.66
2023-01-31T11:55:57.012Z,73.07
2023-01-31T11:58:32.547Z,72.75
2023-01-31T12:01:07.889Z,73.95
2023-01-31T12:03:35.318Z,73.01
2023-01-31T12:06:05.709Z,72.54
2023-01-31T12:08:37.900Z,71.88
2023-01-31T12:11:26.337Z,71.50
2023-01-31T12:14:00.612Z,72.65
2023-01-31T12:16:30.609Z,73.30
2023-01-31T12:19:10.128Z,71.55
2023-01-31T12:21:52.541Z,72.66
2023-01-31T12:24:36.789Z,73.11
2023-01-31T12:27:33.439Z,72.26
2023-01-31T12:30:08.786Z,72.11
2023-01-31T12:32:41.619Z,72.14
2023-01-31T12:35:30.354Z,72.81
2023-01-31T12:38:25.206Z,71.94
2023-01-31T12:41:01.065Z,72.38
2023-01-31T12:43:59.164Z,72.99
2023-01-31T12:47:09.967Z,72.12
2023-01-31T12:50:03.121Z,71.58
2023-01-31T12:52:40.730Z,72.35
2023-01-31T12:55:20.100Z,72.30
2023-01-31T12:57:56.623Z,70.73
2023-01-31T13:00:26.429Z,70.20
2023-01-31T13:03:18.366Z,70.97
2023-01-31T13:05:55.819Z,71.68
2023-01-31T13:08:31.518Z,71.47
2023-01-31T13:11:09.261Z,72.56
2023-01-31T13:13:47.229Z,71.11
2023-01-31T13:16:28.694Z,70.69
2023-01-31T13:18:59.789Z,70.85
2023-01-31T13:21:33.156Z,71.23
2023-01-31T13:24:11.211Z,71.47
2023-01-31T13:26:44.996Z,70.71
2023-01-31T13:29:39.745Z,70.69
2023-01-31T13:32:14.379Z,71.64
2023-01-31T13:34:51.978Z,70.76
2023-01-31T13:37:21.746Z,70.18
2023-01-31T13:40:02.119Z,70.61
2023-01-31T13:42:29.438Z,70.95
2023-01-31T13:45:01.529Z,70.94
2023-01-31T13:47:48.176Z,71.01
2023-01-31T13:50:37.876Z,71.59
2023-01-31T13:53:12.816Z,71.94
2023-01-31T13:55:44.853Z,71.33
2023-01-31T13:58:23.768Z,71.40
2023-01-31T14:00:58.730Z,71.94
2023-01-31T14:03:27.016Z,72.23
2023-01-31T14:06:00.320Z,72.32
2023-01-31T14:08:27.120Z,71.86
2023-01-31T14:11:13.350Z,71.03
2023-01-31T14:13:43.539Z,71.77
2023-01-31T14:16:38.031Z,71.62
2023-01-31T14:19:25.634Z,71.87
2023-01-31T14:21:53.526Z,72.53
2023-01-31T14:24:46.504Z,72.78
2023-01-31T14:27:20.995Z,72.45
2023-01-31T14:29:58.619Z,72.95
2023-01-31T14:32:34.018Z,73.21
2023-01-31T14:35:12.726Z,72.98
2023-01-31T14:37:51.865Z,73.08
2023-01-31T14:40:27.616Z,73.82
2023-01-31T14:43:16.113Z,73.09
2023-01-31T14:46:04.463Z,73.04
2023-01-31T14:48:53.628Z,73.83
2023-01-31T14:51:38.342Z,73.81
2023-01-31T14:54:22.776Z,73.72
2023-01-31T14:56:52.733Z,73.87
2023-01-31T14:59:29.312Z,73.87
2023-01-31T15:01:57.865Z,74.17
2023-01-31T15:04:26.948Z,74.20
2023-01-31T15:06:55.652Z,74.15
2023-01-31T15:09:23.934Z,74.20
2023-01-31T15:11:56.075Z,74.75
2023-01-31T15:14:38.541Z,74.57
2023-01-31T15:17:07.224Z,74.71
2023-01-31T15:20:06.127Z,74.81
2023-01-31T15:22:37.863Z,74.78
2023-01-31T15:25:18.248Z,74.71
2023-01-31T15:27:46.959Z,74.91
2023-01-31T15:30:19.818Z,75.14
2023-01-31T15:33:05.946Z,74.83
2023-01-31T15:35:44.100Z,75.03
2023-01-31T15:38:23.959Z,75.17
2023-01-31T15:41:22.279Z,75.32
2023-01-31T15:44:11.431Z,75.45
2023-01-31T15:46:38.441Z,75.69
2023-01-31T15:49:38.670Z,75.71
2023-01-31T15:52:13.736Z,75.67
2023-01-31T15:54:52.153Z,75.75
2023-01-31T15:57:21.752Z,75.76
2023-01-31T15:59:48.761Z,75.93
2023-01-31T16:02:27.694Z,76.00
2023-01-31T16:04:55.199Z,76.09
2023-01-31T16:07:27.891Z,76.28
2023-01-31T16:09:57.843Z,76.35
2023-01-31T16:12:27.347Z,76.37
2023-01-31T16:14:58.756Z,76.34
2023-01-31T16:17:29.263Z,76.34
2023-01-31T16:19:56.152Z,76.41
2023-01-31T16:22:32.436Z,76.39
2023-01-31T16:25:02.271Z,76.37
2023-01-31T16:27:37.538Z,76.47
2023-01-31T16:30:08.713Z,76.51
2023-01-31T16:32:39.962Z,76.37
2023-01-31T16:35:20.076Z,76.37
2023-01-31T16:38:01.487Z,76.37
2023-01-31T16:40:32.805Z,76.29
2023-01-31T16:43:08.976Z,76.40
2023-01-31T16:45:35.858Z,76.58
2023-01-31T16:48:33.834Z,76.57
2023-01-31T16:51:27.582Z,76.63
2023-01-31T16:54:16.177Z,76.72
2023-01-31T16:56:44.884Z,76.64
2023-01-31T16:59:37.212Z,76.69
2023-01-31T17:02:12.889Z,76.69
2023-01-31T17:04:41.629Z,76.62
2023-01-31T17:07:18.237Z,76.70
2023-01-31T17:09:46.635Z,76.72
2023-01-31T17:12:26.244Z,76.82
2023-01-31T17:14:57.655Z,76.83
2023-01-31T17:17:33.841Z,76.89
2023-01-31T17:20:00.577Z,76.86
2023-01-31T17:22:27.455Z,76.95
2023-01-31T17:24:54.111Z,77.10
2023-01-31T17:27:21.633Z,77.15
2023-01-31T17:29:49.233Z,77.12
2023-01-31T17:32:18.947Z,77.30
2023-01-31T17:34:48.420Z,77.48
2023-01-31T17:37:20.875Z,77.64
2023-01-31T17:39:50.978Z,77.82
2023-01-31T17:42:20.764Z,77.92
2023-01-31T17:44:47.722Z,78.08
2023-01-31T17:47:14.668Z,78.30
2023-01-31T17:49:41.402Z,78.53
2023-01-31T17:52:08.055Z,78.68
2023-01-31T17:54:34.913Z,78.83
2023-01-31T17:57:01.663Z,79.01
2023-01-31T17:59:28.324Z,79.22
2023-01-31T18:01:55.479Z,79.35
2023-01-31T18:04:22.346Z,79.23
2023-01-31T18:06:49.034Z,79.56
2023-01-31T18:09:16.639Z,79.65
2023-01-31T18:11:44.293Z,79.87
2023-01-31T18:14:11.565Z,79.97
2023-01-31T18:16:39.575Z,79.90
2023-01-31T18:19:06.325Z,80.23
2023-01-31T18:21:37.080Z,80.55
2023-01-31T18:24:10.381Z,80.77
2023-01-31T18:26:37.321Z,81.21
2023-01-31T18:29:04.218Z,81.44
2023-01-31T18:31:33.536Z,81.57
2023-01-31T18:34:01.578Z,82.08
2023-01-31T18:36:28.333Z,82.56
2023-01-31T18:38:55.817Z,83.45
2023-01-31T18:41:22.591Z,83.93
2023-01-31T18:43:49.739Z,83.86
2023-01-31T18:46:16.795Z,84.43
2023-01-31T18:48:44.494Z,85.23
2023-01-31T18:51:13.623Z,86.90
2023-01-31T18:53:44.208Z,85.74
2023-01-31T18:56:13.526Z,85.03
2023-01-31T18:58:41.383Z,84.60
2023-01-31T19:01:30.035Z,85.24
2023-01-31T19:03:57.892Z,84.95
2023-01-31T19:06:27.816Z,85.13
2023-01-31T19:08:56.775Z,85.90
2023-01-31T19:11:27.028Z,86.57
2023-01-31T19:13:53.886Z,86.81
2023-01-31T19:16:23.467Z,86.77
2023-01-31T19:18:51.154Z,86.72
2023-01-31T19:21:20.439Z,87.74
2023-01-31T19:23:48.411Z,88.02
2023-01-31T19:26:16.874Z,88.02
2023-01-31T19:28:44.989Z,88.29
2023-01-31T19:31:18.269Z,88.38
2023-01-31T19:33:50.632Z,88.73
2023-01-31T19:36:21.457Z,88.76
2023-01-31T19:38:48.789Z,89.06
2023-01-31T19:41:21.390Z,89.05
2023-01-31T19:43:53.043Z,88.73
2023-01-31T19:46:22.351Z,88.78
2023-01-31T19:48:49.391Z,88.85
2023-01-31T19:51:19.136Z,88.77
2023-01-31T19:53:46.805Z,88.96
2023-01-31T19:56:13.933Z,89.21
2023-01-31T19:58:41.399Z,89.20
2023-01-31T20:01:10.907Z,88.99
2023-01-31T20:03:38.067Z,89.12
2023-01-31T20:06:07.853Z,89.13
2023-01-31T20:08:35.631Z,89.13
2023-01-31T20:11:03.664Z,89.15
2023-01-31T20:13:30.599Z,89.18
2023-01-31T20:15:59.508Z,89.19
2023-01-31T20:18:26.282Z,89.11
2023-01-31T20:20:53.589Z,89.19
2023-01-31T20:23:21.097Z,89.35
2023-01-31T20:25:49.833Z,89.27
2023-01-31T20:28:18.426Z,89.19
2023-01-31T20:30:45.680Z,89.19
2023-01-31T20:33:13.649Z,89.24
2023-01-31T20:35:42.026Z,89.50
2023-01-31T20:38:10.145Z,89.57
2023-01-31T20:40:38.339Z,89.48
2023-01-31T20:43:05.575Z,89.69
2023-01-31T20:45:33.360Z,89.78
2023-01-31T20:48:00.359Z,89.66
2023-01-31T20:50:27.885Z,89.63
2023-01-31T20:52:56.000Z,89.68
2023-01-31T20:55:23.700Z,89.72
2023-01-31T20:57:51.224Z,89.77
2023-01-31T21:00:21.622Z,89.94
2023-01-31T21:02:48.944Z,89.98
2023-01-31T21:05:17.773Z,90.10
2023-01-31T21:07:44.904Z,90.07
2023-01-31T21:10:12.407Z,90.10
2023-01-31T21:12:39.583Z,90.21
2023-01-31T21:15:06.783Z,90.35
2023-01-31T21:17:40.066Z,90.31
2023-01-31T21:20:10.472Z,90.03
2023-01-31T21:22:46.436Z,90.06
2023-01-31T21:25:16.614Z,90.16
2023-01-31T21:27:46.453Z,90.24
2023-01-31T21:30:15.079Z,90.20
2023-01-31T21:32:42.925Z,90.26
2023-01-31T21:35:09.782Z,90.28
2023-01-31T21:37:36.805Z,90.25
2023-01-31T21:40:04.108Z,90.21
2023-01-31T21:42:30.694Z,90.19
2023-01-31T21:44:57.434Z,90.14
2023-01-31T21:47:24.526Z,90.02
2023-01-31T21:49:51.196Z,89.73
2023-01-31T21:52:17.861Z,89.50
2023-01-31T21:54:44.845Z,89.46
2023-01-31T21:57:11.451Z,89.62
2023-01-31T21:59:38.887Z,89.85
2023-01-31T22:02:06.023Z,90.06
2023-01-31T22:04:32.699Z,90.26
2023-01-31T22:06:59.598Z,90.57
2023-01-31T22:09:26.748Z,90.64
2023-01-31T22:11:53.999Z,90.87
2023-01-31T22:14:20.675Z,90.93
2023-01-31T22:16:49.501Z,90.85
2023-01-31T22:19:16.411Z,91.29
2023-01-31T22:21:43.000Z,91.37
2023-01-31T22:24:10.983Z,91.55
2023-01-31T22:26:40.572Z,91.75
2023-01-31T22:29:10.056Z,91.89
2023-01-31T22:31:37.505Z,91.99
2023-01-31T22:34:06.798Z,91.99
2023-01-31T22:36:34.161Z,92.11
2023-01-31T22:39:01.720Z,92.09
2023-01-31T22:41:28.746Z,92.13
2023-01-31T22:43:55.569Z,92.07
2023-01-31T22:46:27.910Z,92.19
2023-01-31T22:48:55.138Z,92.33
2023-01-31T22:51:25.152Z,92.49
2023-01-31T22:53:53.656Z,92.57
2023-01-31T22:56:23.322Z,92.79
2023-01-31T22:58:55.679Z,92.81
2023-01-31T23:01:24.675Z,92.99
2023-01-31T23:03:56.191Z,93.06
2023-01-31T23:06:23.070Z,93.06
2023-01-31T23:08:49.894Z,93.19
2023-01-31T23:11:17.769Z,93.25
2023-01-31T23:13:45.340Z,93.25
2023-01-31T23:16:41.407Z,93.41
2023-01-31T23:19:08.236Z,93.39
2023-01-31T23:21:35.587Z,93.29
2023-01-31T23:24:02.738Z,93.40
2023-01-31T23:26:33.880Z,93.32
2023-01-31T23:29:01.025Z,93.31
2023-01-31T23:31:27.945Z,93.26
2023-01-31T23:33:54.973Z,92.99
2023-01-31T23:36:21.923Z,92.93
2023-01-31T23:38:48.599Z,92.82
2023-01-31T23:41:15.523Z,92.70
2023-01-31T23:43:42.319Z,92.69
2023-01-31T23:46:08.965Z,92.53
2023-01-31T23:48:39.130Z,92.53
2023-01-31T23:51:05.929Z,92.54
2023-01-31T23:53:32.520Z,92.52
2023-01-31T23:55:59.349Z,92.47
2023-01-31T23:58:26.151Z,92.31
